Albury
Weather
Information

and Archive.
Albury Local Internet Skycam This service provided and funded by Albury Local Internet

Help keep our weatherstation running:

Lavington Weatherstation live data - Conditions of Use

Last updated on 21-Nov-2017 at 20:48:09
Temperature
  Currently 23.2 degrees C
  Apparent Temperature ("Wind Chill") is 20.4 degrees C
  Today has ranged from 14.8 at 05:41 to 30.2 at 15:26
  Yesterday ranged from 14.7 at 06:53 to 29.6 at 16:20
Wind
  Now:   10.8kmh, gusting to  10.8kmh from 35 degrees ( NE)
  Hour:   9.3kmh, gusting to  11.2kmh
Rainfall
   0.0mm Midnight to Midnight (ie, yesterday)
   0.0mm Since Midnight (ie, so far today)
   0.0mm 9am yesterday to 9am today
  43.0mm Total this month
Misc items
  Relative humidity is 35%
  Dewpoint is 6.9 deg C
  Estimated Cloudbase is 6700 feet
  Barometric Pressure is 1018.0 mbar
  Solar Insolation: 0 W/m^2
  UV Index: 0.0 (Low)
Top Solar flares in the last 24 hours

Last 24 hours Temperature Graph (click graph for history)
temperature

Last 24 hours Dynamic Wind display (click image for 4-hour image):
Wind Rose

Current Yarrawonga Weather Radar and Infrared Satellite Images from the BOM.

Hourly summaries in the tables below are cumulative and peak values
for the preceding hour, and instantaneous values at the hour.
So far today, 21-Nov-2017
Time   Barom.  Wind + Gust    Direction   RH   Rain    Temp.  Minimum    Maximum
01:00  1022.0   7.4  10.8kmh   42 ( NE)   43%  0.0mm   21.0  20.9@00:58 21.8@00:00
02:00  1022.0   3.9   9.4kmh   33 (NNE)   60%  0.0mm   17.5  17.5@01:59 21.1@01:05
03:00  1021.0   2.0   8.6kmh   61 (ENE)   66%  0.0mm   17.0  16.4@02:20 17.7@02:33
04:00  1021.0   3.6  10.1kmh   65 (ENE)   68%  0.0mm   16.9  15.8@03:28 17.2@03:01
05:00  1021.0   2.1   8.6kmh   11 ( N )   68%  0.0mm   16.3  16.0@04:58 17.3@04:07
06:00  1022.0   1.0   7.2kmh  137 ( SE)   70%  0.0mm   15.4  14.8@05:41 16.9@05:08
07:00  1022.0   4.6  14.8kmh   26 (NNE)   68%  0.0mm   16.2  15.4@06:00 16.3@06:43
08:00  1023.0   5.4  11.9kmh  325 ( NW)   64%  0.0mm   17.4  16.2@07:00 18.0@07:17
09:00  1023.0   8.4  16.9kmh  332 (NNW)   53%  0.0mm   20.2  17.4@08:00 20.4@08:58
10:00  1023.0   8.9  17.6kmh  322 ( NW)   47%  0.0mm   22.5  20.0@09:01 22.5@09:56
11:00  1023.0   7.3  15.5kmh   11 ( N )   37%  0.0mm   24.9  22.2@10:18 25.1@10:56
12:00  1023.0   5.6  12.6kmh  301 (WNW)   31%  0.0mm   25.4  23.8@11:09 26.8@11:54
13:00  1022.0   6.8  16.9kmh  327 (NNW)   20%  0.0mm   27.9  25.4@12:00 28.1@12:57
14:00  1021.0   6.6  14.0kmh   69 (ENE)   19%  0.0mm   29.0  27.5@13:19 29.4@13:38
15:00  1020.0   7.8  15.5kmh  231 ( SW)   21%  0.0mm   29.3  27.9@14:03 29.4@14:54
16:00  1019.0   5.8  12.6kmh  168 (SSE)   21%  0.0mm   29.8  28.3@15:06 30.2@15:26
17:00  1018.0   6.7  14.0kmh  156 (SSE)   23%  0.0mm   29.7  28.4@16:25 29.9@16:14
18:00  1018.0   6.6  14.8kmh  152 (SSE)   24%  0.0mm   28.9  27.6@17:45 30.0@17:03
19:00  1018.0   5.2  11.9kmh   56 ( NE)   24%  0.0mm   28.3  27.3@18:39 29.3@18:20
20:00  1018.0   8.0  11.9kmh   21 (NNE)   36%  0.0mm   24.2  24.2@19:59 28.3@19:00
20:48  1018.0   9.3  11.2kmh   36 ( NE)   35%  0.0mm   23.2  23.1@20:44 24.2@20:00


Summary for yesterday, 20-Nov-2017
Time   Barom.  Wind + Gust    Direction   RH   Rain    Temp.  Minimum    Maximum
01:00  1022.0   8.4  14.8kmh   15 (NNE)   50%  0.0mm   18.8  18.9@00:54 19.7@00:00
02:00  1022.0   8.6  17.6kmh    8 ( N )   54%  0.0mm   18.4  18.1@01:32 18.8@01:00
03:00  1022.0  13.2  23.0kmh   17 (NNE)   55%  0.0mm   17.9  17.8@02:32 18.4@02:00
04:00  1023.0   8.6  16.9kmh    7 ( N )   62%  0.0mm   16.4  16.4@03:55 17.9@03:00
05:00  1023.0   9.0  18.0kmh   46 ( NE)   61%  0.0mm   16.5  16.4@04:00 17.0@04:15
06:00  1023.0  10.1  19.4kmh   34 ( NE)   63%  0.0mm   15.8  15.7@05:52 16.7@05:05
07:00  1024.0   5.3  10.8kmh   22 (NNE)   76%  0.0mm   15.0  14.7@06:53 16.3@06:39
08:00  1025.0   0.5   7.2kmh  196 (SSW)   65%  0.0mm   17.7  15.0@07:00 17.6@07:52
09:00  1025.0   3.6  10.1kmh  331 (NNW)   46%  0.0mm   21.4  17.7@08:00 21.4@08:59
10:00  1025.0   4.9  12.6kmh  316 ( NW)   41%  0.0mm   22.3  20.6@09:11 22.6@09:40
11:00  1025.0   5.0  11.9kmh  319 ( NW)   36%  0.0mm   24.3  22.2@10:01 24.5@10:57
12:00  1024.0   5.2  12.6kmh  197 (SSW)   32%  0.0mm   24.9  23.3@11:23 26.2@11:58
13:00  1023.0   7.6  14.8kmh  169 ( S )   31%  0.0mm   25.9  24.0@12:05 26.2@12:44
14:00  1023.0   7.9  17.6kmh  156 (SSE)   29%  0.0mm   26.9  25.2@13:18 27.9@13:54
15:00  1022.0   8.6  16.2kmh  131 ( SE)   27%  0.0mm   27.6  26.6@14:22 28.0@14:03
16:00  1021.0   8.4  17.6kmh   52 ( NE)   21%  0.0mm   28.8  27.1@15:07 29.1@15:46
17:00  1021.0   6.6  15.5kmh   57 (ENE)   19%  0.0mm   29.0  28.3@16:08 29.6@16:20
18:00  1020.0   5.2  14.0kmh   24 (NNE)   19%  0.0mm   28.7  28.1@17:27 29.3@17:07
19:00  1020.0   7.7  14.8kmh   62 (ENE)   18%  0.0mm   28.0  28.0@18:59 29.0@18:09
20:00  1021.0   6.1  12.6kmh   30 (NNE)   25%  0.0mm   24.5  24.6@19:58 28.1@19:01
21:00  1021.0   7.6  12.6kmh  334 (NNW)   27%  0.0mm   23.5  22.3@20:37 24.7@20:01
22:00  1022.0  10.4  18.7kmh  335 (NNW)   30%  0.0mm   23.4  23.4@21:52 24.0@21:20
23:00  1022.0   6.1  16.2kmh    5 ( N )   34%  0.0mm   22.4  20.7@22:45 23.4@22:00
00:00  1022.0   4.8  10.1kmh   50 ( NE)   39%  0.0mm   21.8  20.1@23:39 22.4@23:00